Time;durP1;ratioP1;P1;durP2;ratioP2;P2;SDS_P1;SDS_P2;PMS_P1;PMS_P2;Temp;Humidity;BMP_temperature;BMP_pressure;BME280_temperature;BME280_humidity;BME280_pressure;Samples;Min_cycle;Max_cycle;Signal;HPM_P1;HPM_P2
2023/10/17 00:00:42;;;;;;;2.13;1.70;;;;;;;;;;5074198;28;20250;-76
2023/10/17 00:03:11;;;;;;;2.47;1.53;;;;;;;;;;5073990;28;20213;-76
2023/10/17 00:05:37;;;;;;;2.80;1.37;;;;;;;;;;5073677;28;20268;-76
2023/10/17 00:08:09;;;;;;;1.60;1.50;;;;;;;;;;5074147;28;20229;-76
2023/10/17 00:10:37;;;;;;;3.37;1.47;;;;;;;;;;5074141;28;20198;-75
2023/10/17 00:15:47;;;;;;;2.80;1.50;;;;;;;;;;5073981;28;20270;-76
2023/10/17 00:18:17;;;;;;;6.43;1.77;;;;;;;;;;5073668;28;20567;-76
2023/10/17 00:20:44;;;;;;;2.13;1.50;;;;;;;;;;5074357;28;20251;-76
2023/10/17 00:23:14;;;;;;;1.67;1.43;;;;;;;;;;5072686;28;20208;-76
2023/10/17 00:25:45;;;;;;;2.13;1.23;;;;;;;;;;5074036;28;20288;-76
2023/10/17 00:28:13;;;;;;;1.40;1.30;;;;;;;;;;5062060;28;20251;-76
2023/10/17 00:30:41;;;;;;;1.50;1.40;;;;;;;;;;5073609;28;20201;-75
2023/10/17 00:33:10;;;;;;;6.87;1.63;;;;;;;;;;5072801;28;20731;-76
2023/10/17 00:35:38;;;;;;;3.97;1.33;;;;;;;;;;5059251;28;20235;-76
2023/10/17 00:38:07;;;;;;;3.30;1.47;;;;;;;;;;5062026;28;20250;-76
2023/10/17 00:40:44;;;;;;;1.73;1.63;;;;;;;;;;5062717;28;20205;-76
2023/10/17 00:43:12;;;;;;;2.90;1.70;;;;;;;;;;5062274;28;20193;-76
2023/10/17 00:45:39;;;;;;;1.50;1.40;;;;;;;;;;5063875;28;20288;-76
2023/10/17 00:48:16;;;;;;;2.20;1.90;;;;;;;;;;5065723;28;20232;-76
2023/10/17 00:50:45;;;;;;;4.77;1.70;;;;;;;;;;5060108;28;20704;-76
2023/10/17 00:53:12;;;;;;;2.10;1.53;;;;;;;;;;5064633;28;20197;-76
2023/10/17 00:55:40;;;;;;;1.53;1.40;;;;;;;;;;5064676;28;20626;-76
2023/10/17 00:58:07;;;;;;;2.07;1.70;;;;;;;;;;5065487;28;20692;-76
2023/10/17 01:00:37;;;;;;;1.53;1.43;;;;;;;;;;5066227;28;20202;-76
2023/10/17 01:03:08;;;;;;;2.40;1.57;;;;;;;;;;5059510;28;21043;-76
2023/10/17 01:05:46;;;;;;;1.70;1.53;;;;;;;;;;5063415;28;20690;-76
2023/10/17 01:08:13;;;;;;;1.83;1.33;;;;;;;;;;5060814;28;20587;-76
2023/10/17 01:10:41;;;;;;;1.97;1.60;;;;;;;;;;5063709;28;20289;-76
2023/10/17 01:13:07;;;;;;;1.93;1.80;;;;;;;;;;5063797;28;20831;-76
2023/10/17 01:15:37;;;;;;;1.70;1.60;;;;;;;;;;5062299;28;20200;-76
2023/10/17 01:18:05;;;;;;;2.10;1.67;;;;;;;;;;5059227;28;20201;-76
2023/10/17 01:20:32;;;;;;;3.87;2.07;;;;;;;;;;5064718;28;20221;-76
2023/10/17 01:23:02;;;;;;;2.67;1.70;;;;;;;;;;5063695;28;20202;-76
2023/10/17 01:25:35;;;;;;;3.10;2.17;;;;;;;;;;5061873;28;20205;-76
2023/10/17 01:28:03;;;;;;;3.50;2.03;;;;;;;;;;5065586;28;20194;-76
2023/10/17 01:30:30;;;;;;;2.00;1.87;;;;;;;;;;5063943;28;20204;-76
2023/10/17 01:32:58;;;;;;;2.53;1.97;;;;;;;;;;5063251;28;20557;-76
2023/10/17 01:35:25;;;;;;;6.73;2.00;;;;;;;;;;5065696;28;20254;-75
2023/10/17 01:37:55;;;;;;;5.87;1.97;;;;;;;;;;5063342;28;20216;-76
2023/10/17 01:40:25;;;;;;;7.97;2.47;;;;;;;;;;5063471;28;20206;-76
2023/10/17 01:42:54;;;;;;;4.30;2.00;;;;;;;;;;5063151;28;20221;-76
2023/10/17 01:45:23;;;;;;;2.03;1.90;;;;;;;;;;5068578;28;20208;-76
2023/10/17 01:47:51;;;;;;;2.97;2.73;;;;;;;;;;5071741;28;20197;-76
2023/10/17 01:50:18;;;;;;;3.80;1.80;;;;;;;;;;5072068;28;20237;-76
2023/10/17 01:52:45;;;;;;;3.57;1.80;;;;;;;;;;5072292;28;20209;-76
2023/10/17 01:55:15;;;;;;;2.27;1.73;;;;;;;;;;5071547;28;20204;-75
2023/10/17 01:57:43;;;;;;;1.87;1.77;;;;;;;;;;5071926;28;20205;-76
2023/10/17 02:00:23;;;;;;;3.80;1.80;;;;;;;;;;5066025;28;20201;-76
2023/10/17 02:02:52;;;;;;;3.37;2.33;;;;;;;;;;5059966;28;20565;-76
2023/10/17 02:05:19;;;;;;;2.83;1.60;;;;;;;;;;5052703;28;20193;-76
2023/10/17 02:07:46;;;;;;;2.07;1.90;;;;;;;;;;5062243;28;20214;-76
2023/10/17 02:10:17;;;;;;;1.53;1.43;;;;;;;;;;5069841;28;20239;-76
2023/10/17 02:12:44;;;;;;;2.40;2.27;;;;;;;;;;5060848;28;20201;-76
2023/10/17 02:15:16;;;;;;;2.23;1.83;;;;;;;;;;5048398;28;20582;-76
2023/10/17 02:17:43;;;;;;;1.77;1.67;;;;;;;;;;5065646;28;20262;-76
2023/10/17 02:20:20;;;;;;;3.37;2.00;;;;;;;;;;5066309;28;20284;-76
2023/10/17 02:22:49;;;;;;;3.00;1.67;;;;;;;;;;5048353;28;20226;-76
2023/10/17 02:25:21;;;;;;;1.97;1.77;;;;;;;;;;5065520;28;20233;-76
2023/10/17 02:27:48;;;;;;;2.97;1.80;;;;;;;;;;5068420;28;20239;-76
2023/10/17 02:30:19;;;;;;;1.77;1.67;;;;;;;;;;5068530;28;20313;-76
2023/10/17 02:32:52;;;;;;;2.10;2.00;;;;;;;;;;5069196;28;20296;-76
2023/10/17 02:35:21;;;;;;;2.03;1.87;;;;;;;;;;5066998;28;20280;-81
2023/10/17 02:37:48;;;;;;;2.23;2.03;;;;;;;;;;5069086;28;20580;-76
2023/10/17 02:40:20;;;;;;;1.60;1.50;;;;;;;;;;5067323;28;20804;-76
2023/10/17 02:42:48;;;;;;;2.00;1.90;;;;;;;;;;5070722;28;20209;-75
2023/10/17 02:45:24;;;;;;;2.03;1.90;;;;;;;;;;5070561;28;20219;-75
2023/10/17 02:47:54;;;;;;;4.23;2.00;;;;;;;;;;5070662;28;20201;-76
2023/10/17 02:50:41;;;;;;;2.73;2.20;;;;;;;;;;5071260;28;20241;-75
2023/10/17 02:53:12;;;;;;;2.27;2.10;;;;;;;;;;5070338;28;20251;-76
2023/10/17 02:55:39;;;;;;;1.97;1.87;;;;;;;;;;5070494;28;20652;-76
2023/10/17 02:58:05;;;;;;;2.17;1.97;;;;;;;;;;5070234;28;20234;-75
2023/10/17 03:00:34;;;;;;;1.80;1.70;;;;;;;;;;5070630;28;20205;-75
2023/10/17 03:03:12;;;;;;;2.77;1.73;;;;;;;;;;5070615;28;20201;-76
2023/10/17 03:05:44;;;;;;;3.00;2.03;;;;;;;;;;5056918;28;20288;-76
2023/10/17 03:08:15;;;;;;;2.23;2.03;;;;;;;;;;5067462;28;20193;-75
2023/10/17 03:10:42;;;;;;;2.33;1.80;;;;;;;;;;5070639;28;20313;-75
2023/10/17 03:13:22;;;;;;;5.47;2.20;;;;;;;;;;5067746;28;20246;-75
2023/10/17 03:15:49;;;;;;;2.13;2.03;;;;;;;;;;5052114;28;20707;-82
2023/10/17 03:18:16;;;;;;;3.30;1.83;;;;;;;;;;5062877;28;20591;-77
2023/10/17 03:20:50;;;;;;;2.07;1.97;;;;;;;;;;5064026;28;20213;-78
2023/10/17 03:23:17;;;;;;;2.73;2.23;;;;;;;;;;5065047;28;20201;-78
2023/10/17 03:25:46;;;;;;;14.23;2.90;;;;;;;;;;5070367;28;20202;-77
2023/10/17 03:28:15;;;;;;;1.70;1.60;;;;;;;;;;5069682;28;20224;-77
2023/10/17 03:30:42;;;;;;;1.87;1.70;;;;;;;;;;5069460;28;20228;-77
2023/10/17 03:33:13;;;;;;;2.30;1.80;;;;;;;;;;5069951;28;20205;-77
2023/10/17 03:36:03;;;;;;;2.50;2.07;;;;;;;;;;5070517;28;21273;-77
2023/10/17 03:38:32;;;;;;;2.30;2.10;;;;;;;;;;5063514;28;20658;-77
2023/10/17 03:41:04;;;;;;;2.27;1.70;;;;;;;;;;5063985;28;20200;-77
2023/10/17 03:43:38;;;;;;;2.60;1.90;;;;;;;;;;5067895;28;20189;-76
2023/10/17 03:46:05;;;;;;;1.87;1.77;;;;;;;;;;5061635;28;20208;-77
2023/10/17 03:48:36;;;;;;;6.30;2.10;;;;;;;;;;5059286;28;20735;-77
2023/10/17 03:51:15;;;;;;;3.97;1.80;;;;;;;;;;5069898;28;20201;-78
2023/10/17 03:53:46;;;;;;;1.83;1.73;;;;;;;;;;5070494;28;20196;-77
2023/10/17 03:56:23;;;;;;;2.30;2.10;;;;;;;;;;5064267;28;20210;-79
2023/10/17 03:58:53;;;;;;;2.10;1.90;;;;;;;;;;5063355;28;20205;-81
2023/10/17 04:01:23;;;;;;;3.07;2.03;;;;;;;;;;5069762;28;20580;-78
2023/10/17 04:03:53;;;;;;;3.47;1.90;;;;;;;;;;5070574;28;20620;-84
2023/10/17 04:06:33;;;;;;;2.93;1.73;;;;;;;;;;5070362;28;20590;-82
2023/10/17 04:09:16;;;;;;;2.07;1.97;;;;;;;;;;5060920;28;20228;-78
2023/10/17 04:11:46;;;;;;;2.30;2.20;;;;;;;;;;5054085;28;20730;-78
2023/10/17 04:14:12;;;;;;;3.80;2.07;;;;;;;;;;5063519;28;20288;-78
2023/10/17 04:16:40;;;;;;;3.70;2.30;;;;;;;;;;5058932;28;20458;-80
2023/10/17 04:19:16;;;;;;;3.57;2.50;;;;;;;;;;5049846;28;20202;-78
2023/10/17 04:21:51;;;;;;;4.40;3.20;;;;;;;;;;5063086;28;20209;-77
2023/10/17 04:24:27;;;;;;;3.17;2.90;;;;;;;;;;5038176;28;20232;-80
2023/10/17 04:27:05;;;;;;;4.30;3.90;;;;;;;;;;5065406;28;20664;-81
2023/10/17 04:29:32;;;;;;;32.70;14.30;;;;;;;;;;5070598;28;20228;-80
2023/10/17 04:32:01;;;;;;;41.97;18.17;;;;;;;;;;5056684;28;20220;-83
2023/10/17 04:34:28;;;;;;;26.77;12.10;;;;;;;;;;5070608;28;20310;-81
2023/10/17 04:36:56;;;;;;;15.33;7.77;;;;;;;;;;5069310;28;20201;-81
2023/10/17 04:39:35;;;;;;;7.13;4.10;;;;;;;;;;5056164;28;20209;-80
2023/10/17 04:42:11;;;;;;;9.20;5.07;;;;;;;;;;5071035;28;20798;-79
2023/10/17 04:44:39;;;;;;;7.13;3.00;;;;;;;;;;5055215;28;20278;-80
2023/10/17 04:49:52;;;;;;;2.57;2.37;;;;;;;;;;5073578;28;20317;-83
2023/10/17 04:52:30;;;;;;;2.57;2.37;;;;;;;;;;5059503;28;20614;-80
2023/10/17 04:55:09;;;;;;;2.27;2.07;;;;;;;;;;5059712;28;20220;-81
2023/10/17 05:00:43;;;;;;;4.67;3.53;;;;;;;;;;5071030;28;20592;-81
2023/10/17 05:03:14;;;;;;;8.63;4.60;;;;;;;;;;5072753;28;20201;-84
2023/10/17 05:06:00;;;;;;;4.20;3.50;;;;;;;;;;5072329;28;20262;-80
2023/10/17 05:08:33;;;;;;;2.70;2.50;;;;;;;;;;5059303;28;20591;-81
2023/10/17 06:17:21;;;;;;;12.80;3.10;;;;;;;;;;5063715;28;20235;-81
2023/10/17 06:19:48;;;;;;;6.83;3.07;;;;;;;;;;5072159;28;20211;-82
2023/10/17 06:30:45;;;;;;;6.00;2.37;;;;;;;;;;5070772;28;20252;-80
2023/10/17 06:33:17;;;;;;;3.27;2.20;;;;;;;;;;5069651;28;20228;-88
2023/10/17 06:35:52;;;;;;;2.37;2.17;;;;;;;;;;5061684;28;20251;-86
2023/10/17 06:38:27;;;;;;;2.73;2.43;;;;;;;;;;5056863;28;20664;-78
2023/10/17 06:40:54;;;;;;;2.93;2.10;;;;;;;;;;5060168;28;20201;-84
2023/10/17 06:43:29;;;;;;;2.33;2.03;;;;;;;;;;5056047;28;20235;-82
2023/10/17 06:46:05;;;;;;;2.67;2.43;;;;;;;;;;5071135;28;20225;-77
2023/10/17 06:48:36;;;;;;;4.00;2.10;;;;;;;;;;5071171;28;20570;-81
2023/10/17 06:53:52;;;;;;;8.17;3.60;;;;;;;;;;5070851;28;20207;-83
2023/10/17 06:56:19;;;;;;;5.17;2.27;;;;;;;;;;5056053;28;20194;-86
2023/10/17 06:58:48;;;;;;;4.37;2.43;;;;;;;;;;5052822;28;20210;-80
2023/10/17 07:01:26;;;;;;;3.90;2.27;;;;;;;;;;5070729;28;20205;-81
2023/10/17 07:03:56;;;;;;;6.33;2.63;;;;;;;;;;5070205;28;20200;-82
2023/10/17 07:06:25;;;;;;;2.37;2.20;;;;;;;;;;5071216;28;20197;-82
2023/10/17 07:08:53;;;;;;;4.47;2.17;;;;;;;;;;5066462;28;20210;-84
2023/10/17 07:11:26;;;;;;;3.20;2.20;;;;;;;;;;5061758;28;20221;-83
2023/10/17 07:14:10;;;;;;;3.70;1.90;;;;;;;;;;5065460;28;20205;-89
2023/10/17 07:16:56;;;;;;;4.07;1.80;;;;;;;;;;5052681;28;20723;-80
2023/10/17 07:22:11;;;;;;;5.20;2.10;;;;;;;;;;5071008;28;20262;-81
2023/10/17 07:24:42;;;;;;;3.73;1.87;;;;;;;;;;5070124;28;20284;-82
2023/10/17 07:27:18;;;;;;;3.13;1.70;;;;;;;;;;5062782;28;20195;-81
2023/10/17 07:29:58;;;;;;;7.67;1.83;;;;;;;;;;5051074;28;20232;-84
2023/10/17 07:32:33;;;;;;;2.07;1.93;;;;;;;;;;5051358;28;20208;-86
2023/10/17 07:35:04;;;;;;;5.97;3.33;;;;;;;;;;5067951;28;20210;-84
2023/10/17 07:37:34;;;;;;;2.90;1.23;;;;;;;;;;5070921;28;20282;-83
2023/10/17 07:40:22;;;;;;;13.73;2.53;;;;;;;;;;5063076;28;20212;-83
2023/10/17 07:42:49;;;;;;;2.70;1.20;;;;;;;;;;5069036;28;20670;-87
2023/10/17 07:45:16;;;;;;;2.03;1.37;;;;;;;;;;5070575;28;20664;-85
2023/10/17 07:47:51;;;;;;;2.40;2.03;;;;;;;;;;5066793;28;20212;-88
2023/10/17 07:50:18;;;;;;;2.57;1.30;;;;;;;;;;5069779;28;20245;-86
2023/10/17 07:52:50;;;;;;;1.00;0.90;;;;;;;;;;5056547;28;20201;-83
2023/10/17 07:55:22;;;;;;;1.20;1.10;;;;;;;;;;5069548;28;20229;-91
2023/10/17 07:57:52;;;;;;;0.90;0.90;;;;;;;;;;5062705;28;20205;-86
2023/10/17 08:00:27;;;;;;;1.13;0.90;;;;;;;;;;5070215;28;20688;-86
2023/10/17 08:02:56;;;;;;;1.00;1.00;;;;;;;;;;5070628;28;20211;-86
2023/10/17 08:05:26;;;;;;;2.90;1.20;;;;;;;;;;5069782;28;20225;-85
2023/10/17 08:08:04;;;;;;;2.67;1.60;;;;;;;;;;5070195;28;20292;-86
2023/10/17 08:10:35;;;;;;;6.80;1.63;;;;;;;;;;5057019;28;20285;-81
2023/10/17 08:13:02;;;;;;;1.70;1.40;;;;;;;;;;5070387;28;20291;-84
2023/10/17 08:15:36;;;;;;;3.40;1.30;;;;;;;;;;5051233;28;20213;-83
2023/10/17 08:18:14;;;;;;;0.90;0.90;;;;;;;;;;5066791;28;20205;-86
2023/10/17 08:20:54;;;;;;;3.10;0.90;;;;;;;;;;5060062;28;20209;-82
2023/10/17 08:23:21;;;;;;;2.00;0.93;;;;;;;;;;5062738;28;20201;-82
2023/10/17 08:25:53;;;;;;;2.03;0.80;;;;;;;;;;5063624;28;20205;-85
2023/10/17 08:31:22;;;;;;;1.60;1.13;;;;;;;;;;5054419;28;20256;-86
2023/10/17 08:34:04;;;;;;;1.23;0.90;;;;;;;;;;5064696;28;20332;-83
2023/10/17 08:36:42;;;;;;;3.80;1.20;;;;;;;;;;5072256;28;20263;-82
2023/10/17 08:39:26;;;;;;;1.97;0.93;;;;;;;;;;5073508;28;20239;-83
2023/10/17 08:41:53;;;;;;;2.03;1.40;;;;;;;;;;5063871;28;20213;-85
2023/10/17 08:44:22;;;;;;;2.07;1.43;;;;;;;;;;5063435;28;20238;-83
2023/10/17 08:46:52;;;;;;;3.37;1.20;;;;;;;;;;5044410;28;20214;-82
2023/10/17 08:49:26;;;;;;;8.83;5.63;;;;;;;;;;5070961;28;20231;-81
2023/10/17 08:51:52;;;;;;;25.13;13.93;;;;;;;;;;5073362;28;20776;-81
2023/10/17 08:54:20;;;;;;;29.43;16.33;;;;;;;;;;5072359;28;20209;-79
2023/10/17 08:56:47;;;;;;;46.77;29.07;;;;;;;;;;5060170;28;20210;-78
2023/10/17 08:59:15;;;;;;;4.77;3.40;;;;;;;;;;5062639;28;20214;-79
2023/10/17 09:02:00;;;;;;;41.17;26.80;;;;;;;;;;5067069;28;20209;-79
2023/10/17 09:04:33;;;;;;;14.67;7.97;;;;;;;;;;5057458;28;20206;-79
2023/10/17 09:07:05;;;;;;;7.50;2.00;;;;;;;;;;5060672;28;20233;-79
2023/10/17 09:09:34;;;;;;;1.30;1.03;;;;;;;;;;5072893;28;20215;-79
2023/10/17 09:12:19;;;;;;;2.93;1.43;;;;;;;;;;5072787;28;20224;-79
2023/10/17 09:14:48;;;;;;;2.43;1.20;;;;;;;;;;5072705;28;20197;-79
2023/10/17 09:17:28;;;;;;;5.10;2.20;;;;;;;;;;5072688;28;20203;-79
2023/10/17 09:20:03;;;;;;;3.90;1.33;;;;;;;;;;5073232;28;20223;-79
2023/10/17 09:22:40;;;;;;;1.20;1.10;;;;;;;;;;5072528;28;20225;-78
2023/10/17 09:25:19;;;;;;;1.80;1.70;;;;;;;;;;5072148;28;20634;-77
2023/10/17 09:27:50;;;;;;;2.03;1.40;;;;;;;;;;5071588;28;20205;-78
2023/10/17 09:30:18;;;;;;;1.73;1.20;;;;;;;;;;5072295;28;20253;-78
2023/10/17 09:32:48;;;;;;;5.97;1.27;;;;;;;;;;5072080;28;20197;-78
2023/10/17 09:35:18;;;;;;;1.20;1.10;;;;;;;;;;5070700;28;20214;-78
2023/10/17 09:37:50;;;;;;;1.80;1.27;;;;;;;;;;5061685;28;20202;-78
2023/10/17 09:40:25;;;;;;;5.87;2.13;;;;;;;;;;5072545;28;20205;-78
2023/10/17 09:43:00;;;;;;;1.43;1.07;;;;;;;;;;5072072;28;20205;-78
2023/10/17 09:45:33;;;;;;;2.63;1.43;;;;;;;;;;5071906;28;20676;-78
2023/10/17 09:48:04;;;;;;;1.77;0.93;;;;;;;;;;5071849;28;20204;-78
2023/10/17 09:50:34;;;;;;;3.67;1.10;;;;;;;;;;5071488;28;20239;-78
2023/10/17 09:53:13;;;;;;;1.90;1.40;;;;;;;;;;5072128;28;20205;-79
2023/10/17 09:55:49;;;;;;;1.80;0.73;;;;;;;;;;5072025;28;20259;-79
2023/10/17 09:58:18;;;;;;;5.20;0.90;;;;;;;;;;5071640;28;20692;-79
2023/10/17 10:00:48;;;;;;;0.80;0.80;;;;;;;;;;5071677;28;20211;-78
2023/10/17 10:03:17;;;;;;;0.80;0.80;;;;;;;;;;5071782;28;20199;-78
2023/10/17 10:05:45;;;;;;;1.43;1.10;;;;;;;;;;5071496;28;20247;-78
2023/10/17 10:08:32;;;;;;;2.73;1.20;;;;;;;;;;5071247;28;20198;-77
2023/10/17 10:10:59;;;;;;;1.33;0.83;;;;;;;;;;5071886;28;20307;-78
2023/10/17 10:13:26;;;;;;;1.53;1.00;;;;;;;;;;5059099;28;20207;-79
2023/10/17 10:16:01;;;;;;;4.23;2.20;;;;;;;;;;5070283;28;20283;-78
2023/10/17 10:18:53;;;;;;;1.80;1.20;;;;;;;;;;5071080;28;20219;-78
2023/10/17 10:21:22;;;;;;;1.20;0.97;;;;;;;;;;5071223;28;20205;-78
2023/10/17 10:23:51;;;;;;;2.10;1.23;;;;;;;;;;5072006;28;20255;-78
2023/10/17 10:26:19;;;;;;;1.10;1.07;;;;;;;;;;5071252;28;20685;-78
2023/10/17 10:28:47;;;;;;;1.90;1.00;;;;;;;;;;5071280;28;20205;-77
2023/10/17 10:31:38;;;;;;;1.37;1.13;;;;;;;;;;5070608;28;20256;-79
2023/10/17 10:34:05;;;;;;;2.77;2.50;;;;;;;;;;5070850;28;20251;-79
2023/10/17 10:36:36;;;;;;;1.40;1.30;;;;;;;;;;5053609;28;20228;-78
2023/10/17 10:39:12;;;;;;;2.97;1.03;;;;;;;;;;5066198;28;20202;-83
2023/10/17 10:41:40;;;;;;;2.27;1.20;;;;;;;;;;5045902;28;20663;-84
2023/10/17 10:44:07;;;;;;;2.70;1.10;;;;;;;;;;5069954;28;20266;-84
2023/10/17 10:46:34;;;;;;;4.23;1.17;;;;;;;;;;5051236;28;20205;-80
2023/10/17 10:49:01;;;;;;;4.13;1.10;;;;;;;;;;5065436;28;20225;-82
2023/10/17 10:51:28;;;;;;;3.30;2.10;;;;;;;;;;5069947;28;20225;-82
2023/10/17 10:53:56;;;;;;;2.37;1.20;;;;;;;;;;5071190;28;20197;-81
2023/10/17 10:56:25;;;;;;;2.97;2.00;;;;;;;;;;5070476;28;20209;-80
2023/10/17 10:58:55;;;;;;;1.53;1.33;;;;;;;;;;5071182;28;20263;-78
2023/10/17 11:01:22;;;;;;;2.80;1.10;;;;;;;;;;5061689;28;20206;-82
2023/10/17 11:03:50;;;;;;;1.40;1.20;;;;;;;;;;5069502;28;20197;-82
2023/10/17 11:06:23;;;;;;;1.67;1.27;;;;;;;;;;5070472;28;20213;-81
2023/10/17 11:08:51;;;;;;;1.43;1.27;;;;;;;;;;5070352;28;20288;-80
2023/10/17 11:11:20;;;;;;;4.47;1.80;;;;;;;;;;5056671;28;20240;-80
2023/10/17 11:17:05;;;;;;;1.43;1.30;;;;;;;;;;5047409;28;20204;-83
2023/10/17 11:19:32;;;;;;;3.77;3.40;;;;;;;;;;5066923;28;20577;-79
2023/10/17 11:21:58;;;;;;;1.77;1.40;;;;;;;;;;5058383;28;20197;-83
2023/10/17 11:24:26;;;;;;;3.83;1.30;;;;;;;;;;5056628;28;20206;-81
2023/10/17 11:26:56;;;;;;;1.60;1.30;;;;;;;;;;5070234;28;20200;-82
2023/10/17 11:29:25;;;;;;;4.47;3.33;;;;;;;;;;5053811;28;20206;-81
2023/10/17 11:31:53;;;;;;;3.47;2.20;;;;;;;;;;5061790;28;20227;-79
2023/10/17 11:34:19;;;;;;;4.90;4.40;;;;;;;;;;5064512;28;20229;-84
2023/10/17 11:36:48;;;;;;;2.20;1.60;;;;;;;;;;5056918;28;20202;-83
2023/10/17 11:39:15;;;;;;;2.70;1.63;;;;;;;;;;5050863;28;20194;-82
2023/10/17 11:41:48;;;;;;;5.00;3.47;;;;;;;;;;5050399;28;20297;-82
2023/10/17 11:44:17;;;;;;;49.67;32.37;;;;;;;;;;5044968;28;20202;-82
2023/10/17 11:46:55;;;;;;;10.40;7.30;;;;;;;;;;5064586;28;20204;-82
2023/10/17 11:49:26;;;;;;;19.53;9.43;;;;;;;;;;5055186;28;20660;-82
2023/10/17 11:52:00;;;;;;;7.93;5.43;;;;;;;;;;5061848;28;20598;-83
2023/10/17 11:54:27;;;;;;;19.57;12.73;;;;;;;;;;5054117;28;20211;-87
2023/10/17 11:56:55;;;;;;;8.37;6.57;;;;;;;;;;5061206;28;20204;-82
2023/10/17 11:59:23;;;;;;;5.47;4.40;;;;;;;;;;5074054;28;20205;-81
2023/10/17 12:01:52;;;;;;;5.23;2.80;;;;;;;;;;5073693;28;20201;-87
2023/10/17 12:04:19;;;;;;;4.37;3.27;;;;;;;;;;5074836;28;20205;-86
2023/10/17 12:06:47;;;;;;;5.43;4.93;;;;;;;;;;5073788;28;20197;-81
2023/10/17 12:09:22;;;;;;;4.97;2.80;;;;;;;;;;5073725;28;20216;-80
2023/10/17 12:11:50;;;;;;;1.63;1.53;;;;;;;;;;5065261;28;20240;-84
2023/10/17 12:14:20;;;;;;;1.67;1.20;;;;;;;;;;5067060;28;20205;-86
2023/10/17 12:16:53;;;;;;;5.57;2.40;;;;;;;;;;5065166;28;20197;-87
2023/10/17 12:19:21;;;;;;;11.50;10.30;;;;;;;;;;5061079;28;20216;-85
2023/10/17 12:21:49;;;;;;;15.77;12.40;;;;;;;;;;5073876;28;20209;-77
2023/10/17 12:24:19;;;;;;;14.10;12.33;;;;;;;;;;5060865;28;20204;-86
2023/10/17 12:26:47;;;;;;;13.53;11.07;;;;;;;;;;5074231;28;20205;-85
2023/10/17 12:29:14;;;;;;;18.13;15.80;;;;;;;;;;5059870;28;20209;-80
2023/10/17 12:31:41;;;;;;;3.17;2.80;;;;;;;;;;5073358;28;20233;-79
2023/10/17 12:34:09;;;;;;;3.67;2.37;;;;;;;;;;5072916;28;20204;-81
2023/10/17 12:36:36;;;;;;;5.03;3.07;;;;;;;;;;5072939;28;20212;-80
2023/10/17 12:39:03;;;;;;;8.17;6.37;;;;;;;;;;5073393;28;20258;-81
2023/10/17 12:41:30;;;;;;;14.40;6.70;;;;;;;;;;5060107;28;20210;-83
2023/10/17 12:43:58;;;;;;;6.17;4.80;;;;;;;;;;5072812;28;20197;-81
2023/10/17 12:46:25;;;;;;;6.60;3.83;;;;;;;;;;5059759;28;20571;-82
2023/10/17 12:48:52;;;;;;;3.23;1.77;;;;;;;;;;5073413;28;20746;-84
2023/10/17 12:51:23;;;;;;;1.57;1.47;;;;;;;;;;5073495;28;20229;-80
2023/10/17 12:53:49;;;;;;;2.00;1.33;;;;;;;;;;5072684;28;20204;-81
2023/10/17 12:56:17;;;;;;;3.13;1.20;;;;;;;;;;5072442;28;20197;-78
2023/10/17 12:58:44;;;;;;;2.83;1.83;;;;;;;;;;5073339;28;20718;-78
2023/10/17 13:01:12;;;;;;;2.33;1.83;;;;;;;;;;5072393;28;20205;-82
2023/10/17 13:03:39;;;;;;;2.63;1.60;;;;;;;;;;5073037;28;20197;-81
2023/10/17 13:06:06;;;;;;;2.20;1.90;;;;;;;;;;5059439;28;20584;-81
2023/10/17 13:08:34;;;;;;;1.70;1.60;;;;;;;;;;5072633;28;20702;-79
2023/10/17 13:11:02;;;;;;;2.83;1.30;;;;;;;;;;5073188;28;20204;-79
2023/10/17 13:13:30;;;;;;;2.10;1.27;;;;;;;;;;5072694;28;20209;-80
2023/10/17 13:15:57;;;;;;;3.37;1.07;;;;;;;;;;5072419;28;20193;-80
2023/10/17 13:18:24;;;;;;;3.07;1.17;;;;;;;;;;5072704;28;20205;-81
2023/10/17 13:20:57;;;;;;;2.17;1.13;;;;;;;;;;5072278;28;20276;-80
2023/10/17 13:23:24;;;;;;;6.20;1.77;;;;;;;;;;5072229;28;20205;-81
2023/10/17 13:25:53;;;;;;;2.00;1.40;;;;;;;;;;5061254;28;20232;-80
2023/10/17 13:28:20;;;;;;;1.00;1.00;;;;;;;;;;5072424;28;20205;-82
2023/10/17 13:30:47;;;;;;;1.40;0.97;;;;;;;;;;5072575;28;20250;-81
2023/10/17 13:33:14;;;;;;;2.40;1.30;;;;;;;;;;5068831;28;20223;-77
2023/10/17 13:35:41;;;;;;;6.80;2.37;;;;;;;;;;5064289;28;20202;-78
2023/10/17 13:38:09;;;;;;;5.67;1.80;;;;;;;;;;5072352;28;20200;-79
2023/10/17 13:40:36;;;;;;;2.40;1.93;;;;;;;;;;5072060;28;20975;-79
2023/10/17 13:43:05;;;;;;;4.63;2.10;;;;;;;;;;5072226;28;20197;-81
2023/10/17 13:45:36;;;;;;;2.27;1.70;;;;;;;;;;5072045;28;20254;-80
2023/10/17 13:48:04;;;;;;;3.30;1.70;;;;;;;;;;5072267;28;20204;-82
2023/10/17 13:50:31;;;;;;;6.17;2.10;;;;;;;;;;5072321;28;20264;-79
2023/10/17 13:53:06;;;;;;;6.53;4.30;;;;;;;;;;5071697;28;20224;-79
2023/10/17 13:55:35;;;;;;;14.37;9.10;;;;;;;;;;5071813;28;20704;-80
2023/10/17 13:58:04;;;;;;;11.53;5.27;;;;;;;;;;5071680;28;20197;-80
2023/10/17 14:00:36;;;;;;;2.53;1.70;;;;;;;;;;5069065;28;20224;-79
2023/10/17 14:03:06;;;;;;;4.00;1.30;;;;;;;;;;5071176;28;20284;-81
2023/10/17 14:05:33;;;;;;;2.97;1.60;;;;;;;;;;5072174;28;20280;-78
2023/10/17 14:08:01;;;;;;;4.47;1.60;;;;;;;;;;5072070;28;20204;-78
2023/10/17 14:10:27;;;;;;;6.37;2.93;;;;;;;;;;5071456;28;20224;-82
2023/10/17 14:12:54;;;;;;;3.20;1.67;;;;;;;;;;5065643;28;20225;-82
2023/10/17 14:15:22;;;;;;;4.50;1.40;;;;;;;;;;5055830;28;20202;-79
2023/10/17 14:17:53;;;;;;;2.10;1.53;;;;;;;;;;5063040;28;20201;-83
2023/10/17 14:20:38;;;;;;;1.67;1.37;;;;;;;;;;5068113;28;20215;-82
2023/10/17 14:23:11;;;;;;;3.37;1.23;;;;;;;;;;5063262;28;20201;-80
2023/10/17 14:28:23;;;;;;;2.13;1.30;;;;;;;;;;5070534;28;20339;-79
2023/10/17 14:30:54;;;;;;;2.10;1.93;;;;;;;;;;5070948;28;20680;-79
2023/10/17 14:33:21;;;;;;;2.37;1.80;;;;;;;;;;5061349;28;20228;-78
2023/10/17 14:35:49;;;;;;;11.13;8.47;;;;;;;;;;5070944;28;20206;-79
2023/10/17 14:38:16;;;;;;;4.30;2.30;;;;;;;;;;5070690;28;20215;-78
2023/10/17 14:40:43;;;;;;;2.63;1.83;;;;;;;;;;5068542;28;20201;-78
2023/10/17 14:43:12;;;;;;;2.10;1.50;;;;;;;;;;5066166;28;20205;-80
2023/10/17 14:45:40;;;;;;;5.63;1.97;;;;;;;;;;5058402;28;20752;-80
2023/10/17 14:48:11;;;;;;;7.77;3.17;;;;;;;;;;5069826;28;20220;-81
2023/10/17 14:50:38;;;;;;;17.30;15.43;;;;;;;;;;5065114;28;20231;-84
2023/10/17 14:53:05;;;;;;;6.03;5.10;;;;;;;;;;5061267;28;20316;-82
2023/10/17 14:55:33;;;;;;;4.70;3.20;;;;;;;;;;5059787;28;20210;-82
2023/10/17 14:58:01;;;;;;;3.47;3.10;;;;;;;;;;5071244;28;20198;-81
2023/10/17 15:00:28;;;;;;;10.17;5.47;;;;;;;;;;5055782;28;20202;-82
2023/10/17 15:02:55;;;;;;;4.00;2.60;;;;;;;;;;5057606;28;20207;-82
2023/10/17 15:05:24;;;;;;;4.67;2.33;;;;;;;;;;5067104;28;20208;-82
2023/10/17 15:07:51;;;;;;;3.10;1.50;;;;;;;;;;5058323;28;20672;-82
2023/10/17 15:10:19;;;;;;;2.83;1.87;;;;;;;;;;5068985;28;20292;-82
2023/10/17 15:12:47;;;;;;;3.90;1.57;;;;;;;;;;5069171;28;20312;-83
2023/10/17 15:15:14;;;;;;;2.90;1.80;;;;;;;;;;5055986;28;20213;-82
2023/10/17 15:17:42;;;;;;;3.20;2.90;;;;;;;;;;5060659;28;20209;-82
2023/10/17 15:20:11;;;;;;;8.57;7.77;;;;;;;;;;5063896;28;20204;-82
2023/10/17 15:22:40;;;;;;;4.30;3.87;;;;;;;;;;5050709;28;20213;-82
2023/10/17 15:25:11;;;;;;;3.60;1.40;;;;;;;;;;5067392;28;20577;-81
2023/10/17 15:27:38;;;;;;;2.30;1.43;;;;;;;;;;5059927;28;20670;-81
2023/10/17 15:30:05;;;;;;;2.47;1.50;;;;;;;;;;5068018;28;20205;-82
2023/10/17 15:32:32;;;;;;;2.37;1.33;;;;;;;;;;5070836;28;20228;-82
2023/10/17 15:34:59;;;;;;;1.63;1.53;;;;;;;;;;5070621;28;20206;-82
2023/10/17 15:37:26;;;;;;;2.13;1.77;;;;;;;;;;5069173;28;20279;-81
2023/10/17 15:39:54;;;;;;;3.27;1.93;;;;;;;;;;5064058;28;20188;-81
2023/10/17 15:42:21;;;;;;;2.60;1.87;;;;;;;;;;5066032;28;20216;-82
2023/10/17 15:44:49;;;;;;;2.37;2.03;;;;;;;;;;5063019;28;20574;-81
2023/10/17 15:47:17;;;;;;;2.97;1.57;;;;;;;;;;5050556;28;20205;-82
2023/10/17 15:49:44;;;;;;;2.07;1.47;;;;;;;;;;5067134;28;20239;-81
2023/10/17 15:52:11;;;;;;;1.40;1.30;;;;;;;;;;5070160;28;20202;-83
2023/10/17 15:54:38;;;;;;;1.87;1.40;;;;;;;;;;5064685;28;20213;-81
2023/10/17 15:57:08;;;;;;;2.47;1.70;;;;;;;;;;5052182;28;20205;-82
2023/10/17 15:59:35;;;;;;;1.83;1.33;;;;;;;;;;5050570;28;20206;-83
2023/10/17 16:02:02;;;;;;;2.67;1.63;;;;;;;;;;5064558;28;20210;-83
2023/10/17 16:04:30;;;;;;;1.60;1.50;;;;;;;;;;5070488;28;20601;-82
2023/10/17 16:06:57;;;;;;;5.23;3.53;;;;;;;;;;5070132;28;20205;-83
2023/10/17 16:09:25;;;;;;;11.77;4.37;;;;;;;;;;5070030;28;20214;-82
2023/10/17 16:11:52;;;;;;;9.90;5.13;;;;;;;;;;5061973;28;20237;-82
2023/10/17 16:14:21;;;;;;;10.47;5.43;;;;;;;;;;5065409;28;20230;-82
2023/10/17 16:16:48;;;;;;;13.10;5.83;;;;;;;;;;5061913;28;20202;-80
2023/10/17 16:19:15;;;;;;;5.90;3.47;;;;;;;;;;5063657;28;20641;-80
2023/10/17 16:21:43;;;;;;;10.90;5.03;;;;;;;;;;5053510;28;20201;-85
2023/10/17 16:24:10;;;;;;;13.70;8.77;;;;;;;;;;5050185;28;20673;-82
2023/10/17 16:26:37;;;;;;;10.33;5.53;;;;;;;;;;5037522;28;20632;-81
2023/10/17 16:29:04;;;;;;;12.80;9.47;;;;;;;;;;5061209;28;20201;-80
2023/10/17 16:31:33;;;;;;;8.53;5.67;;;;;;;;;;5062371;28;20205;-80
2023/10/17 16:34:00;;;;;;;23.23;13.67;;;;;;;;;;5063964;28;20309;-80
2023/10/17 16:36:27;;;;;;;23.00;14.77;;;;;;;;;;5050442;28;20198;-80